< < Back
Terminal Aerodrome Forecast


Current Version              Previous Versions:   1  2  3  4  5  6  7  8  9  

Terminal Aerodrome Forecast

169
FTUS42 KGSP 290520
TAFAVL
TAF
KAVL 290520Z 2906/3006 15003KT P6SM FEW190
     FM291600 19008G16KT P6SM BKN210
     FM300200 20005G14KT P6SM BKN050
     FM300400 32010G17KT P6SM BKN060=

Latest METAR

278
SAUS70 KWBC 291558
MTRAVL
METAR KAVL 291554Z 20007KT 170V260 10SM CLR 06/M04 A3021 RMK AO2 SLP237
T00611044


USA.gov is the U.S. government's official web portal to all federal, state and local government web resources and services.